Terminal Aerodrome Forecast
Issued by NWS Knoxville/Tri Cities, TN

Home | Current Version | Previous Version | Text Only | Print | Product List | Glossary On
Versions: 1 2 3 4 5 6 7 8 9 10 11 12 13 14 15 16
000
FTUS44 KMRX 251542 AAB
TAFTRI
TAF AMD
KTRI 251542Z 2516/2612 VRB03KT P6SM SCT017 BKN040
      TEMPO 2516/2518 BKN017
     FM252000 VRB03KT P6SM BKN050
     FM260200 00000KT P6SM SCT050
     FM260800 00000KT 4SM BR SCT010=

USA.gov is the U.S. government's official web portal to all federal, state and local government web resources and services.